Time;durP1;ratioP1;P1;durP2;ratioP2;P2;SDS_P1;SDS_P2;PMS_P1;PMS_P2;Temp;Humidity;BMP_temperature;BMP_pressure;BME280_temperature;BME280_humidity;BME280_pressure;Samples;Min_cycle;Max_cycle;Signal;HPM_P1;HPM_P2
2021/03/08 00:00:20;;;;;;;17.73;9.80;;;-0.90;90.80;;;;;;4993949;28;20026;-78
2021/03/08 00:02:47;;;;;;;18.88;9.18;;;-0.80;90.60;;;;;;4993657;28;20027;-79
2021/03/08 00:05:14;;;;;;;18.52;10.25;;;-0.80;90.10;;;;;;4993854;28;20023;-79
2021/03/08 00:07:40;;;;;;;19.92;9.82;;;-0.80;90.40;;;;;;4994972;28;20030;-79
2021/03/08 00:10:06;;;;;;;17.13;9.40;;;-0.60;90.10;;;;;;4994359;28;20026;-79
2021/03/08 00:12:32;;;;;;;14.02;8.77;;;-0.60;89.30;;;;;;4994311;28;20038;-79
2021/03/08 00:14:58;;;;;;;16.65;9.52;;;-0.60;88.30;;;;;;4993877;28;20023;-79
2021/03/08 00:17:24;;;;;;;14.15;8.90;;;-0.60;88.60;;;;;;4993672;28;20037;-79
2021/03/08 00:19:49;;;;;;;17.00;8.63;;;-0.60;89.30;;;;;;4994970;28;20359;-79
2021/03/08 00:22:15;;;;;;;15.52;8.30;;;-0.50;89.70;;;;;;4993619;28;20018;-80
2021/03/08 00:24:41;;;;;;;14.85;8.32;;;-0.60;90.10;;;;;;4995090;28;20034;-80
2021/03/08 00:27:07;;;;;;;17.52;9.77;;;-0.60;90.20;;;;;;4993792;28;20026;-79
2021/03/08 00:29:32;;;;;;;16.63;9.55;;;-0.50;90.40;;;;;;4993544;28;20022;-79
2021/03/08 00:31:58;;;;;;;18.42;9.95;;;-0.50;90.30;;;;;;4993415;28;20509;-79
2021/03/08 00:34:24;;;;;;;19.20;9.93;;;-0.50;90.30;;;;;;4993606;28;20493;-80
2021/03/08 00:40:21;;;;;;;19.40;10.73;;;-0.40;90.60;;;;;;4969797;28;20104;-80
2021/03/08 00:42:49;;;;;;;21.25;9.57;;;-0.30;90.10;;;;;;4975936;28;20120;-80
2021/03/08 00:45:17;;;;;;;18.45;10.85;;;-0.30;90.40;;;;;;4973948;28;20037;-80
2021/03/08 00:47:45;;;;;;;19.40;10.90;;;-0.30;90.30;;;;;;4975141;28;20031;-80
2021/03/08 00:50:20;;;;;;;19.02;10.50;;;-0.20;90.20;;;;;;4974305;28;20022;-80
2021/03/08 00:52:45;;;;;;;16.30;9.65;;;-0.20;90.40;;;;;;4973968;28;20403;-79
2021/03/08 00:55:12;;;;;;;16.42;9.57;;;-0.20;89.90;;;;;;4974224;28;20058;-80
2021/03/08 00:57:39;;;;;;;16.65;9.55;;;-0.20;89.90;;;;;;4973528;28;20093;-82
2021/03/08 01:00:07;;;;;;;14.93;9.40;;;-0.20;90.10;;;;;;4975324;28;20129;-79
2021/03/08 01:02:33;;;;;;;17.95;9.80;;;-0.20;90.30;;;;;;4973801;28;20026;-79
2021/03/08 01:04:58;;;;;;;14.60;8.63;;;-0.10;90.10;;;;;;4974054;28;20081;-80
2021/03/08 01:07:24;;;;;;;16.15;9.23;;;0.00;89.10;;;;;;4974028;28;20034;-80
2021/03/08 01:09:50;;;;;;;14.40;8.23;;;0.00;88.60;;;;;;4974701;28;20058;-80
2021/03/08 01:12:15;;;;;;;18.20;8.70;;;0.00;88.00;;;;;;4973511;28;20506;-80
2021/03/08 01:14:41;;;;;;;17.13;10.00;;;0.10;87.20;;;;;;4973909;28;20418;-79
2021/03/08 01:17:07;;;;;;;16.20;9.38;;;0.00;86.60;;;;;;4973683;28;20034;-80
2021/03/08 01:19:33;;;;;;;18.48;9.15;;;0.00;87.00;;;;;;4973805;28;20081;-79
2021/03/08 01:21:59;;;;;;;13.95;9.48;;;0.00;86.70;;;;;;4973847;28;20420;-79
2021/03/08 01:24:25;;;;;;;17.90;9.45;;;0.00;87.10;;;;;;4974123;28;20027;-81
2021/03/08 01:26:51;;;;;;;15.13;9.15;;;0.00;87.00;;;;;;4973512;28;20346;-80
2021/03/08 01:29:16;;;;;;;17.50;9.38;;;0.00;86.40;;;;;;4973625;28;20031;-80
2021/03/08 01:31:42;;;;;;;16.63;9.45;;;0.00;87.50;;;;;;4974010;28;20042;-79
2021/03/08 01:34:08;;;;;;;16.70;9.25;;;0.10;88.60;;;;;;4974079;28;20027;-83
2021/03/08 01:36:33;;;;;;;16.08;9.48;;;0.10;88.40;;;;;;4973575;28;20434;-81
2021/03/08 01:38:59;;;;;;;13.52;8.35;;;0.10;87.80;;;;;;4973635;28;20563;-81
2021/03/08 01:41:25;;;;;;;18.77;9.35;;;0.10;87.50;;;;;;4973527;28;20492;-80
2021/03/08 01:43:51;;;;;;;15.20;8.93;;;0.20;88.70;;;;;;4973395;28;20041;-81
2021/03/08 01:46:16;;;;;;;15.90;9.20;;;0.30;86.10;;;;;;4973212;28;20077;-80
2021/03/08 01:48:42;;;;;;;13.43;8.23;;;0.30;87.00;;;;;;4973711;28;20378;-81
2021/03/08 01:51:08;;;;;;;15.10;9.40;;;0.40;84.30;;;;;;4974305;28;20425;-80
2021/03/08 01:53:35;;;;;;;13.55;8.48;;;0.40;85.10;;;;;;4972928;28;20478;-81
2021/03/08 01:56:02;;;;;;;14.15;8.82;;;0.40;86.70;;;;;;4973526;28;20118;-81
2021/03/08 01:58:28;;;;;;;16.27;8.57;;;0.40;87.30;;;;;;4973340;28;20023;-81
2021/03/08 02:00:53;;;;;;;18.40;10.38;;;0.50;88.50;;;;;;4973425;28;20030;-81
2021/03/08 02:03:19;;;;;;;15.95;9.23;;;0.40;91.00;;;;;;4973317;28;20027;-81
2021/03/08 02:05:47;;;;;;;16.13;9.52;;;0.50;91.00;;;;;;4973097;28;20470;-81
2021/03/08 02:08:17;;;;;;;15.30;9.20;;;0.50;90.60;;;;;;4973337;28;20109;-80
2021/03/08 02:10:43;;;;;;;15.57;9.85;;;0.50;90.60;;;;;;4973081;28;20023;-82
2021/03/08 02:13:21;;;;;;;18.27;9.63;;;0.40;92.00;;;;;;4972924;28;20138;-81
2021/03/08 02:16:00;;;;;;;15.65;9.27;;;0.40;92.80;;;;;;4973377;28;20027;-82
2021/03/08 02:18:45;;;;;;;16.33;9.25;;;0.30;93.10;;;;;;4974336;28;20026;-83
2021/03/08 02:21:29;;;;;;;17.15;9.35;;;0.30;93.50;;;;;;4972924;28;20061;-80
2021/03/08 02:24:13;;;;;;;21.25;10.73;;;0.30;93.60;;;;;;4977117;28;20113;-80
2021/03/08 02:26:50;;;;;;;15.13;9.38;;;0.30;94.10;;;;;;4976680;28;20121;-79
2021/03/08 02:30:00;;;;;;;15.60;9.52;;;0.40;94.10;;;;;;4976358;28;20027;-79
2021/03/08 02:32:45;;;;;;;14.25;8.80;;;0.30;93.30;;;;;;4975504;28;20062;-79
2021/03/08 02:35:18;;;;;;;14.68;9.25;;;0.30;93.80;;;;;;4977452;28;20023;-80
2021/03/08 02:37:55;;;;;;;16.67;10.52;;;0.30;94.40;;;;;;4976306;28;20034;-80
2021/03/08 02:40:31;;;;;;;17.60;9.85;;;0.40;94.60;;;;;;4976104;28;20441;-80
2021/03/08 02:42:59;;;;;;;17.58;9.60;;;0.40;94.70;;;;;;4976256;28;20057;-79
2021/03/08 02:45:29;;;;;;;14.63;8.57;;;0.50;94.70;;;;;;4977448;28;20022;-79
2021/03/08 02:47:57;;;;;;;14.27;8.73;;;0.50;93.00;;;;;;4975887;28;20030;-80
2021/03/08 02:50:27;;;;;;;13.15;9.00;;;0.50;92.00;;;;;;4960121;28;20433;-80
2021/03/08 02:52:58;;;;;;;14.82;8.65;;;0.50;92.40;;;;;;4976369;28;20381;-80
2021/03/08 02:55:33;;;;;;;17.50;8.90;;;0.50;91.80;;;;;;4977118;28;20098;-79
2021/03/08 02:58:01;;;;;;;15.60;9.23;;;0.50;92.30;;;;;;4975784;28;20035;-80
2021/03/08 03:00:29;;;;;;;13.73;8.98;;;0.50;91.60;;;;;;4975666;28;20023;-80
2021/03/08 03:02:56;;;;;;;15.95;8.60;;;0.50;91.90;;;;;;4976254;28;20029;-81
2021/03/08 03:05:22;;;;;;;17.23;9.13;;;0.50;91.90;;;;;;4975914;28;20033;-81
2021/03/08 03:07:50;;;;;;;19.13;9.18;;;0.40;92.00;;;;;;4975989;28;20038;-81
2021/03/08 03:10:17;;;;;;;14.05;8.20;;;0.50;93.00;;;;;;4975916;28;20023;-80
2021/03/08 03:12:44;;;;;;;16.25;9.25;;;0.40;92.20;;;;;;4975996;28;20547;-80
2021/03/08 03:15:11;;;;;;;14.45;8.38;;;0.40;92.70;;;;;;4975778;28;20117;-81
2021/03/08 03:17:39;;;;;;;13.70;8.98;;;0.40;93.30;;;;;;4975902;28;20027;-80
2021/03/08 03:20:11;;;;;;;13.07;9.38;;;0.40;93.00;;;;;;4975754;28;20458;-82
2021/03/08 03:22:39;;;;;;;17.13;10.60;;;0.40;93.10;;;;;;4975690;28;20031;-82
2021/03/08 03:25:06;;;;;;;14.43;8.38;;;0.40;93.80;;;;;;4975380;28;20015;-80
2021/03/08 03:27:32;;;;;;;15.75;9.43;;;0.40;93.70;;;;;;4975453;28;20049;-80
2021/03/08 03:29:59;;;;;;;19.90;10.07;;;0.40;94.50;;;;;;4975634;28;20025;-80
2021/03/08 03:32:26;;;;;;;17.15;9.02;;;0.40;93.50;;;;;;4975262;28;20034;-79
2021/03/08 03:34:53;;;;;;;15.02;8.82;;;0.40;94.60;;;;;;4974665;28;20453;-80
2021/03/08 03:37:23;;;;;;;18.08;9.05;;;0.40;94.30;;;;;;4975186;28;20027;-79
2021/03/08 03:39:50;;;;;;;15.98;9.45;;;0.40;94.20;;;;;;4975093;28;20051;-80
2021/03/08 03:42:17;;;;;;;16.70;9.38;;;0.40;94.40;;;;;;4975302;28;20027;-80
2021/03/08 03:44:43;;;;;;;13.98;8.77;;;0.40;95.10;;;;;;4975940;28;20077;-80
2021/03/08 03:47:09;;;;;;;16.25;9.10;;;0.30;95.40;;;;;;4975058;28;20027;-79
2021/03/08 03:49:35;;;;;;;13.68;8.90;;;0.40;95.40;;;;;;4974648;28;20022;-81
2021/03/08 03:52:01;;;;;;;15.57;9.52;;;0.40;95.20;;;;;;4974627;28;20497;-79
2021/03/08 03:54:27;;;;;;;15.15;9.38;;;0.40;94.90;;;;;;4975062;28;20031;-79
2021/03/08 03:56:56;;;;;;;16.08;9.32;;;0.40;94.20;;;;;;4973971;28;20558;-79
2021/03/08 03:59:33;;;;;;;19.40;9.90;;;0.40;94.40;;;;;;4975683;28;20026;-79
2021/03/08 04:02:00;;;;;;;16.27;9.38;;;0.40;93.70;;;;;;4974734;28;20030;-79
2021/03/08 04:04:50;;;;;;;14.13;9.25;;;0.30;93.50;;;;;;4975910;28;20030;-79
2021/03/08 04:07:18;;;;;;;17.92;9.60;;;0.40;93.80;;;;;;4975660;28;20443;-79
2021/03/08 04:09:50;;;;;;;15.95;9.88;;;0.40;94.00;;;;;;4974558;28;20054;-78
2021/03/08 04:12:19;;;;;;;16.38;9.02;;;0.40;93.90;;;;;;4974267;28;20077;-80
2021/03/08 04:14:47;;;;;;;14.48;8.73;;;0.40;94.10;;;;;;4974160;28;20473;-80
2021/03/08 04:17:15;;;;;;;16.52;9.43;;;0.40;93.90;;;;;;4974206;28;20456;-77
2021/03/08 04:19:41;;;;;;;13.85;9.20;;;0.40;94.40;;;;;;4975110;28;20057;-79
2021/03/08 04:22:09;;;;;;;15.07;9.45;;;0.40;93.80;;;;;;4974365;28;20055;-80
2021/03/08 04:24:38;;;;;;;14.85;9.60;;;0.30;93.90;;;;;;4974952;28;20035;-79
2021/03/08 04:27:07;;;;;;;14.10;8.93;;;0.40;94.20;;;;;;4973914;28;20477;-79
2021/03/08 04:29:39;;;;;;;17.63;8.73;;;0.40;94.30;;;;;;4974073;28;20034;-79
2021/03/08 04:32:07;;;;;;;14.07;9.10;;;0.40;95.10;;;;;;4975319;28;20090;-79
2021/03/08 04:34:35;;;;;;;15.35;9.68;;;0.40;94.40;;;;;;4973746;28;20027;-81
2021/03/08 04:37:01;;;;;;;17.63;11.35;;;0.40;94.60;;;;;;4973913;28;20077;-78
2021/03/08 04:39:28;;;;;;;15.30;9.55;;;0.40;94.60;;;;;;4974622;28;20042;-79
2021/03/08 04:41:54;;;;;;;15.05;9.43;;;0.40;95.10;;;;;;4973869;28;20031;-79
2021/03/08 04:44:21;;;;;;;13.95;9.00;;;0.40;95.60;;;;;;4973453;28;20377;-82
2021/03/08 04:46:48;;;;;;;15.95;9.82;;;0.40;95.40;;;;;;4972407;28;20370;-81
2021/03/08 04:49:14;;;;;;;17.45;9.43;;;0.40;96.00;;;;;;4973693;28;20114;-79
2021/03/08 04:51:40;;;;;;;21.08;10.57;;;0.40;95.90;;;;;;4973399;28;20042;-79
2021/03/08 04:54:07;;;;;;;19.90;10.23;;;0.40;95.50;;;;;;4973321;28;20038;-79
2021/03/08 04:56:34;;;;;;;17.75;11.35;;;0.50;95.70;;;;;;4974553;28;20042;-81
2021/03/08 04:59:03;;;;;;;49.08;26.52;;;0.50;94.80;;;;;;4973566;28;20031;-79
2021/03/08 05:01:32;;;;;;;40.70;21.73;;;0.50;94.60;;;;;;4973449;28;20061;-79
2021/03/08 05:03:59;;;;;;;30.30;17.27;;;0.50;95.20;;;;;;4973443;28;20469;-79
2021/03/08 05:06:28;;;;;;;29.25;16.08;;;0.60;95.50;;;;;;4973147;28;20779;-79
2021/03/08 05:08:55;;;;;;;17.52;11.63;;;0.60;94.80;;;;;;4973169;28;20034;-79
2021/03/08 05:11:20;;;;;;;13.55;9.93;;;0.60;95.00;;;;;;4973012;28;20026;-79
2021/03/08 05:13:49;;;;;;;19.38;9.60;;;0.60;95.30;;;;;;4973284;28;20038;-79
2021/03/08 05:16:16;;;;;;;18.40;10.35;;;0.60;94.90;;;;;;4973010;28;20394;-80
2021/03/08 05:18:43;;;;;;;20.95;12.30;;;0.40;94.70;;;;;;4973139;28;20033;-79
2021/03/08 05:21:12;;;;;;;17.88;12.13;;;0.60;95.40;;;;;;4973081;28;20126;-79
2021/03/08 05:23:39;;;;;;;20.55;11.05;;;0.60;95.10;;;;;;4974269;28;20106;-79
2021/03/08 05:26:05;;;;;;;16.35;10.63;;;0.50;94.80;;;;;;4973078;28;20031;-80
2021/03/08 05:28:33;;;;;;;15.35;10.13;;;0.60;94.90;;;;;;4973025;28;20034;-80
2021/03/08 05:31:00;;;;;;;20.17;11.38;;;0.50;95.30;;;;;;4972782;28;20031;-80
2021/03/08 05:33:29;;;;;;;20.52;11.55;;;0.50;94.80;;;;;;4972823;28;20043;-80
2021/03/08 05:35:57;;;;;;;16.13;10.63;;;0.50;95.00;;;;;;4972877;28;20027;-79
2021/03/08 05:38:25;;;;;;;17.80;9.75;;;0.60;94.90;;;;;;4972536;28;20027;-79
2021/03/08 05:41:16;;;;;;;19.33;10.82;;;0.60;94.70;;;;;;4972863;28;20027;-79
2021/03/08 05:43:48;;;;;;;18.80;10.02;;;0.60;94.90;;;;;;4972431;28;20117;-78
2021/03/08 05:46:43;;;;;;;15.57;10.43;;;0.60;94.90;;;;;;4972618;28;20023;-78
2021/03/08 05:49:21;;;;;;;15.40;9.57;;;0.50;94.70;;;;;;4974407;28;20031;-79
2021/03/08 05:52:21;;;;;;;19.40;10.48;;;0.50;94.90;;;;;;4973054;28;20027;-79
2021/03/08 05:54:55;;;;;;;20.75;10.85;;;0.60;95.30;;;;;;4974305;28;20026;-82
2021/03/08 05:57:40;;;;;;;17.73;9.75;;;0.70;94.80;;;;;;4975799;28;20027;-80
2021/03/08 06:00:27;;;;;;;16.75;8.88;;;0.60;94.90;;;;;;4978312;28;20114;-80
2021/03/08 06:03:11;;;;;;;14.95;9.68;;;0.70;94.90;;;;;;4980201;28;20038;-80
2021/03/08 06:05:46;;;;;;;16.30;10.43;;;0.70;94.60;;;;;;4979615;28;20027;-78
2021/03/08 06:08:40;;;;;;;15.05;9.18;;;1.60;99.90;;;;;;4979301;28;20027;-79
2021/03/08 06:11:14;;;;;;;17.15;9.18;;;1.50;92.50;;;;;;4981923;28;20106;-80
2021/03/08 06:13:51;;;;;;;21.08;8.68;;;1.30;92.30;;;;;;4975815;28;20046;-80
2021/03/08 06:16:36;;;;;;;14.40;8.80;;;1.20;93.10;;;;;;4976016;28;20103;-80
2021/03/08 06:19:06;;;;;;;15.02;8.93;;;1.20;93.30;;;;;;4976039;28;20027;-78
2021/03/08 06:21:33;;;;;;;17.45;8.90;;;1.10;93.40;;;;;;4976186;28;20093;-78
2021/03/08 06:24:00;;;;;;;14.73;9.90;;;1.10;94.00;;;;;;4977007;28;20034;-78
2021/03/08 06:26:28;;;;;;;17.38;10.32;;;1.10;93.90;;;;;;4975440;28;20031;-82
2021/03/08 06:28:56;;;;;;;17.08;9.18;;;1.10;94.10;;;;;;4975785;28;20042;-78
2021/03/08 06:31:22;;;;;;;15.63;9.65;;;1.10;94.40;;;;;;4975726;28;20473;-80
2021/03/08 06:33:48;;;;;;;16.27;9.70;;;1.10;94.20;;;;;;4977132;28;20046;-82
2021/03/08 06:36:14;;;;;;;16.17;10.65;;;1.10;93.80;;;;;;4976273;28;20027;-78
2021/03/08 06:38:40;;;;;;;21.55;10.10;;;1.10;93.60;;;;;;4975688;28;20066;-78
2021/03/08 06:41:09;;;;;;;20.33;10.15;;;1.10;94.10;;;;;;4977056;28;20035;-80
2021/03/08 06:43:36;;;;;;;16.63;10.07;;;1.10;94.80;;;;;;4976169;28;20170;-79
2021/03/08 06:46:03;;;;;;;14.98;10.27;;;1.20;94.70;;;;;;4975923;28;20027;-81
2021/03/08 06:48:29;;;;;;;16.92;10.77;;;1.10;94.40;;;;;;4975554;28;20034;-78
2021/03/08 06:51:09;;;;;;;21.05;10.57;;;1.20;94.20;;;;;;4975361;28;20413;-78
2021/03/08 06:53:35;;;;;;;19.88;11.38;;;1.30;93.50;;;;;;4975211;28;20039;-79
2021/03/08 06:56:22;;;;;;;18.25;10.10;;;1.40;93.90;;;;;;4975757;28;20369;-84
2021/03/08 06:59:10;;;;;;;23.20;9.90;;;1.50;93.60;;;;;;4976080;28;20030;-80
2021/03/08 07:01:39;;;;;;;16.60;9.30;;;1.50;93.30;;;;;;4975510;28;20031;-79
2021/03/08 07:04:12;;;;;;;34.60;22.85;;;1.60;92.00;;;;;;4976758;28;20019;-79
2021/03/08 07:06:38;;;;;;;23.08;11.57;;;1.60;91.10;;;;;;4974897;28;20019;-80
2021/03/08 07:09:07;;;;;;;21.40;11.30;;;1.70;90.90;;;;;;4974088;28;20034;-79
2021/03/08 07:11:33;;;;;;;16.10;9.63;;;1.80;91.50;;;;;;4975436;28;20019;-80
2021/03/08 07:13:59;;;;;;;18.48;9.43;;;1.90;91.00;;;;;;4975570;28;20027;-80
2021/03/08 07:16:38;;;;;;;17.90;8.65;;;1.90;91.30;;;;;;4975459;28;20043;-79
2021/03/08 07:19:05;;;;;;;17.23;8.48;;;1.90;91.20;;;;;;4975200;28;20037;-80
2021/03/08 07:21:30;;;;;;;16.95;9.32;;;2.00;90.90;;;;;;4974940;28;20031;-78
2021/03/08 07:24:08;;;;;;;17.95;9.68;;;2.10;90.10;;;;;;4976088;28;20377;-79
2021/03/08 07:26:34;;;;;;;15.25;10.13;;;2.20;90.20;;;;;;4975996;28;20019;-79
2021/03/08 07:29:10;;;;;;;28.23;17.85;;;2.30;89.70;;;;;;4975033;28;20041;-78
2021/03/08 07:31:52;;;;;;;19.23;12.50;;;2.40;90.00;;;;;;4975858;28;20482;-78
2021/03/08 07:34:19;;;;;;;43.28;22.15;;;2.60;89.70;;;;;;4955142;29;20043;-79
2021/03/08 07:36:57;;;;;;;24.50;11.70;;;2.70;90.10;;;;;;4954757;28;20024;-78
2021/03/08 07:39:22;;;;;;;30.50;15.50;;;2.80;86.40;;;;;;4954574;28;20508;-78
2021/03/08 07:41:52;;;;;;;20.33;12.18;;;3.00;87.20;;;;;;4954857;29;20035;-78
2021/03/08 07:44:20;;;;;;;24.35;11.68;;;3.10;87.80;;;;;;4954827;29;20114;-78
2021/03/08 07:46:46;;;;;;;19.52;9.43;;;3.20;85.20;;;;;;4955375;28;20044;-78
2021/03/08 07:49:12;;;;;;;16.25;9.57;;;3.40;84.10;;;;;;4954971;29;20039;-79
2021/03/08 07:52:00;;;;;;;16.67;10.70;;;3.50;82.20;;;;;;4953238;29;20081;-78
2021/03/08 07:54:26;;;;;;;15.95;9.10;;;3.70;81.90;;;;;;4954651;29;20032;-78
2021/03/08 07:56:53;;;;;;;15.23;9.18;;;3.70;76.30;;;;;;4954754;28;20139;-78
2021/03/08 07:59:20;;;;;;;12.23;8.30;;;4.00;75.80;;;;;;4954946;29;20042;-82
2021/03/08 08:01:48;;;;;;;16.40;8.13;;;4.10;73.00;;;;;;4955930;28;20474;-79
2021/03/08 08:04:13;;;;;;;14.75;9.38;;;4.20;72.10;;;;;;4956047;28;20031;-80
2021/03/08 08:06:40;;;;;;;14.82;10.98;;;4.40;72.10;;;;;;4954818;28;20042;-82
2021/03/08 08:09:07;;;;;;;12.00;7.25;;;4.40;70.50;;;;;;4956384;28;20027;-80
2021/03/08 08:11:33;;;;;;;13.60;9.48;;;4.50;71.60;;;;;;4954982;29;20094;-80
2021/03/08 08:14:00;;;;;;;13.05;8.25;;;4.60;72.60;;;;;;4956119;28;20136;-82
2021/03/08 08:16:29;;;;;;;13.15;8.82;;;4.70;69.50;;;;;;4955071;28;20055;-83
2021/03/08 08:19:04;;;;;;;13.10;8.63;;;4.90;67.80;;;;;;4954896;29;20026;-82
2021/03/08 08:21:42;;;;;;;17.17;8.60;;;5.00;68.30;;;;;;4954569;28;20067;-83
2021/03/08 08:24:11;;;;;;;11.35;6.70;;;5.00;68.20;;;;;;4956171;28;20035;-79
2021/03/08 08:26:37;;;;;;;15.73;7.28;;;5.10;67.60;;;;;;4954451;28;20468;-80
2021/03/08 08:29:04;;;;;;;13.02;7.60;;;5.10;67.70;;;;;;4956787;28;20114;-81
2021/03/08 08:31:58;;;;;;;17.15;8.35;;;5.30;66.70;;;;;;4956517;28;20027;-83
2021/03/08 08:34:38;;;;;;;10.80;7.30;;;5.40;66.30;;;;;;4955849;28;20035;-79
2021/03/08 08:37:05;;;;;;;10.93;7.70;;;5.50;66.90;;;;;;4954415;28;20031;-80
2021/03/08 08:39:31;;;;;;;9.13;6.75;;;5.60;67.50;;;;;;4955696;28;20064;-83
2021/03/08 08:42:17;;;;;;;13.30;7.00;;;5.60;66.80;;;;;;4954860;29;20035;-78
2021/03/08 08:44:45;;;;;;;10.98;6.57;;;6.00;67.70;;;;;;4954382;29;20027;-80
2021/03/08 08:47:33;;;;;;;9.57;6.55;;;6.10;64.20;;;;;;4955679;28;20027;-82
2021/03/08 08:50:04;;;;;;;11.68;8.15;;;6.20;64.30;;;;;;4954636;29;20458;-80
2021/03/08 08:52:50;;;;;;;10.48;7.78;;;6.20;64.80;;;;;;4954202;29;20517;-80
2021/03/08 08:55:19;;;;;;;16.75;9.25;;;6.10;65.10;;;;;;4954619;29;20038;-81
2021/03/08 08:58:23;;;;;;;13.07;8.23;;;6.10;65.70;;;;;;4954546;28;20031;-80
2021/03/08 09:04:00;;;;;;;15.35;9.13;;;6.20;65.60;;;;;;4955610;29;20037;-81
2021/03/08 09:06:45;;;;;;;13.88;8.35;;;6.30;64.10;;;;;;4954142;29;20419;-80
2021/03/08 09:09:30;;;;;;;14.68;9.70;;;6.30;63.30;;;;;;4954482;28;20039;-82
2021/03/08 09:11:57;;;;;;;14.90;8.27;;;6.40;64.50;;;;;;4973343;28;20045;-81
2021/03/08 09:14:38;;;;;;;16.80;10.55;;;6.50;64.00;;;;;;4973430;28;20114;-81
2021/03/08 09:17:08;;;;;;;16.15;9.98;;;6.50;65.50;;;;;;4973127;28;20035;-79
2021/03/08 09:19:34;;;;;;;15.63;9.23;;;7.40;67.80;;;;;;4973090;28;20029;-80
2021/03/08 09:22:28;;;;;;;18.15;11.40;;;7.80;64.50;;;;;;4973533;28;20026;-81
2021/03/08 09:25:08;;;;;;;14.75;9.98;;;7.60;60.10;;;;;;4973631;28;20085;-80
2021/03/08 09:28:07;;;;;;;21.75;13.57;;;7.50;60.30;;;;;;4972868;28;20035;-79
2021/03/08 09:30:44;;;;;;;14.63;9.70;;;7.50;62.50;;;;;;4970000;28;20035;-79
2021/03/08 09:33:12;;;;;;;12.02;8.20;;;7.50;60.80;;;;;;4977330;28;20502;-80
2021/03/08 09:35:40;;;;;;;16.23;10.23;;;7.50;60.60;;;;;;4977106;28;20018;-80
2021/03/08 09:38:09;;;;;;;15.77;8.32;;;7.50;59.70;;;;;;4978032;28;20114;-80
2021/03/08 09:40:44;;;;;;;15.80;9.93;;;7.70;59.30;;;;;;4976839;28;20050;-79
2021/03/08 09:43:31;;;;;;;13.80;9.15;;;7.70;65.80;;;;;;4977976;28;20037;-80
2021/03/08 09:46:03;;;;;;;11.38;8.35;;;7.70;59.40;;;;;;4976724;28;20426;-79
2021/03/08 09:48:31;;;;;;;12.45;8.25;;;7.70;58.60;;;;;;4977351;28;20033;-81
2021/03/08 09:51:16;;;;;;;14.77;9.38;;;7.70;58.60;;;;;;4977349;28;20470;-81
2021/03/08 09:53:49;;;;;;;11.80;8.90;;;7.70;65.40;;;;;;4977782;28;20042;-80
2021/03/08 09:56:17;;;;;;;24.95;11.70;;;7.90;59.70;;;;;;4976704;28;20058;-80
2021/03/08 09:58:44;;;;;;;19.65;10.05;;;8.00;61.00;;;;;;4976587;28;20026;-81
2021/03/08 10:01:17;;;;;;;9.63;7.57;;;8.30;60.90;;;;;;4978075;28;20027;-80
2021/03/08 10:03:43;;;;;;;14.13;9.82;;;8.40;58.40;;;;;;4977158;28;20023;-81
2021/03/08 10:06:30;;;;;;;16.45;10.77;;;8.60;58.50;;;;;;4979350;28;20457;-79
2021/03/08 10:08:58;;;;;;;18.10;11.23;;;8.60;57.00;;;;;;4976169;28;20033;-79
2021/03/08 10:11:29;;;;;;;20.42;10.23;;;8.60;56.50;;;;;;4975808;28;20061;-78
2021/03/08 10:13:58;;;;;;;12.90;8.80;;;8.70;56.20;;;;;;4975526;28;20393;-78
2021/03/08 10:16:29;;;;;;;13.02;9.75;;;8.80;56.20;;;;;;4975782;28;20096;-79
2021/03/08 10:18:56;;;;;;;15.07;9.65;;;8.90;54.60;;;;;;4975953;28;20034;-80
2021/03/08 10:21:22;;;;;;;11.45;8.55;;;8.90;55.00;;;;;;4977305;28;20030;-80
2021/03/08 10:23:49;;;;;;;17.42;9.30;;;8.90;55.90;;;;;;4977293;28;20374;-80
2021/03/08 10:26:17;;;;;;;16.33;9.43;;;8.70;55.60;;;;;;4975818;28;20038;-81
2021/03/08 10:28:43;;;;;;;12.05;8.93;;;8.70;56.10;;;;;;4975842;28;20050;-80
2021/03/08 10:31:20;;;;;;;12.48;9.82;;;8.50;56.80;;;;;;4975756;28;20564;-78
2021/03/08 10:33:49;;;;;;;16.45;10.82;;;8.30;56.60;;;;;;4975489;28;20389;-79
2021/03/08 10:36:20;;;;;;;14.27;9.48;;;8.20;56.70;;;;;;4975592;28;20033;-79
2021/03/08 10:38:52;;;;;;;13.95;9.70;;;8.30;58.00;;;;;;4976448;28;20047;-78
2021/03/08 10:41:20;;;;;;;11.75;8.85;;;8.30;57.50;;;;;;4975307;28;20457;-78
2021/03/08 10:43:46;;;;;;;16.05;11.10;;;8.30;56.60;;;;;;4976396;28;20098;-78
2021/03/08 10:46:12;;;;;;;14.70;10.07;;;8.50;57.00;;;;;;4975019;28;20429;-81
2021/03/08 10:49:09;;;;;;;17.63;10.05;;;8.50;56.90;;;;;;4975041;28;20029;-78
2021/03/08 10:51:39;;;;;;;14.15;8.95;;;8.60;56.80;;;;;;4975095;28;20030;-78
2021/03/08 10:54:08;;;;;;;13.93;8.80;;;8.60;55.50;;;;;;4975391;28;20046;-79
2021/03/08 10:56:37;;;;;;;41.45;21.00;;;8.70;54.90;;;;;;4974917;28;20027;-79
2021/03/08 10:59:04;;;;;;;18.08;9.02;;;8.60;54.80;;;;;;4975236;28;20118;-80
2021/03/08 11:01:30;;;;;;;12.98;9.48;;;8.50;55.20;;;;;;4975110;28;20114;-79
2021/03/08 11:03:56;;;;;;;12.63;8.40;;;8.50;54.70;;;;;;4974830;28;20030;-79
2021/03/08 11:06:23;;;;;;;13.73;9.55;;;8.30;54.40;;;;;;4975857;28;20019;-78
2021/03/08 11:09:00;;;;;;;12.43;8.07;;;8.50;55.60;;;;;;4974633;28;20035;-77
2021/03/08 11:11:29;;;;;;;9.65;8.05;;;8.60;55.30;;;;;;4974706;28;20482;-78
2021/03/08 11:14:01;;;;;;;14.55;10.82;;;8.80;54.20;;;;;;4974482;28;20042;-79
2021/03/08 11:16:28;;;;;;;15.13;11.70;;;8.80;54.50;;;;;;4974592;28;20053;-79
2021/03/08 11:18:54;;;;;;;12.73;8.50;;;8.90;54.40;;;;;;4975433;28;20027;-80
2021/03/08 11:21:31;;;;;;;13.48;8.27;;;9.00;53.70;;;;;;4974288;28;20027;-78
2021/03/08 11:24:20;;;;;;;16.83;10.50;;;8.90;52.80;;;;;;4974689;28;20015;-79
2021/03/08 11:27:21;;;;;;;15.80;8.98;;;9.00;53.90;;;;;;4974354;28;20023;-81
2021/03/08 11:30:09;;;;;;;13.05;9.70;;;9.10;53.10;;;;;;4974191;28;20061;-80
2021/03/08 11:32:37;;;;;;;13.75;9.80;;;9.30;53.90;;;;;;4974258;28;20046;-79
2021/03/08 11:35:04;;;;;;;13.73;9.52;;;9.40;54.40;;;;;;4974216;28;20466;-81
2021/03/08 11:37:30;;;;;;;13.85;9.60;;;9.40;52.50;;;;;;4975132;28;20064;-79
2021/03/08 11:40:02;;;;;;;15.32;9.55;;;9.40;55.10;;;;;;4973681;28;20149;-78
2021/03/08 11:42:29;;;;;;;19.55;12.95;;;9.30;52.80;;;;;;4973774;28;20039;-78
2021/03/08 11:44:57;;;;;;;17.05;9.57;;;9.30;52.60;;;;;;4973676;28;20022;-79
2021/03/08 11:47:23;;;;;;;12.13;9.13;;;9.20;51.70;;;;;;4973955;28;20392;-79
2021/03/08 11:49:49;;;;;;;15.55;11.57;;;9.40;52.70;;;;;;4974833;28;20027;-78
2021/03/08 11:52:15;;;;;;;11.88;8.25;;;9.40;51.80;;;;;;4973822;28;20046;-78
2021/03/08 11:54:41;;;;;;;11.40;8.35;;;9.50;51.40;;;;;;4974388;28;20122;-79
2021/03/08 11:57:09;;;;;;;14.98;11.05;;;9.60;50.60;;;;;;4973783;28;20031;-81
2021/03/08 11:59:36;;;;;;;34.42;23.77;;;9.60;51.40;;;;;;4974826;28;20025;-78
2021/03/08 12:02:02;;;;;;;17.27;10.80;;;9.70;52.00;;;;;;4974448;28;20130;-81
2021/03/08 12:04:27;;;;;;;25.58;13.25;;;9.90;51.20;;;;;;4975072;28;20051;-79
2021/03/08 12:06:53;;;;;;;15.55;11.32;;;10.00;50.80;;;;;;4973848;28;20023;-78
2021/03/08 12:09:20;;;;;;;14.63;9.05;;;10.10;50.80;;;;;;4973491;28;20125;-78
2021/03/08 12:11:46;;;;;;;11.75;10.05;;;10.20;49.20;;;;;;4973545;28;20015;-79
2021/03/08 12:14:11;;;;;;;17.25;10.48;;;10.30;50.00;;;;;;4973332;28;20033;-79
2021/03/08 12:16:37;;;;;;;13.23;10.05;;;10.30;49.50;;;;;;4973531;28;20072;-79
2021/03/08 12:19:03;;;;;;;15.45;8.90;;;10.40;49.70;;;;;;4974989;28;20394;-78
2021/03/08 12:21:30;;;;;;;12.82;9.32;;;10.20;48.70;;;;;;4974902;28;20023;-79
2021/03/08 12:23:56;;;;;;;14.38;8.80;;;10.10;49.90;;;;;;4973500;28;20026;-78
2021/03/08 12:26:22;;;;;;;10.88;8.25;;;10.00;48.80;;;;;;4973278;28;20101;-78
2021/03/08 12:28:47;;;;;;;12.88;9.60;;;9.90;49.80;;;;;;4973132;28;20050;-79
2021/03/08 12:31:14;;;;;;;12.18;8.00;;;9.70;50.10;;;;;;4974185;28;20049;-80
2021/03/08 12:33:40;;;;;;;14.48;8.98;;;10.20;58.70;;;;;;4973161;28;20043;-78
2021/03/08 12:36:07;;;;;;;13.32;8.38;;;10.40;51.20;;;;;;4974044;28;20033;-78
2021/03/08 12:38:34;;;;;;;10.27;8.15;;;10.40;51.20;;;;;;4974426;28;20042;-78
2021/03/08 12:41:00;;;;;;;13.43;10.23;;;10.60;52.30;;;;;;4974422;28;20045;-78
2021/03/08 12:43:26;;;;;;;18.42;10.82;;;11.00;49.40;;;;;;4973980;28;20058;-78
2021/03/08 12:45:51;;;;;;;12.20;8.77;;;11.00;50.80;;;;;;4972717;28;20057;-80
2021/03/08 12:48:17;;;;;;;11.55;8.60;;;11.00;50.60;;;;;;4973503;28;20030;-80
2021/03/08 12:50:43;;;;;;;14.68;9.07;;;11.10;48.90;;;;;;4972380;28;20122;-80
2021/03/08 12:53:10;;;;;;;12.48;10.13;;;11.20;49.20;;;;;;4973565;28;20147;-78
2021/03/08 12:55:37;;;;;;;12.15;9.75;;;11.30;49.30;;;;;;4973713;28;20062;-81
2021/03/08 12:58:02;;;;;;;12.27;9.32;;;11.40;46.70;;;;;;4973632;28;20070;-81
2021/03/08 13:00:28;;;;;;;10.15;8.30;;;11.50;45.50;;;;;;4973604;28;20054;-77
2021/03/08 13:02:53;;;;;;;11.75;8.25;;;11.50;45.40;;;;;;4973544;28;20033;-80
2021/03/08 13:05:19;;;;;;;13.07;9.25;;;11.60;46.00;;;;;;4973414;28;20752;-80